sensor_id;sensor_type;location;lat;lon;timestamp;temperature;humidity
14378;DHT22;7272;53.668;9.578;2023-04-25T00:01:50;8.70;99.90
14378;DHT22;7272;53.668;9.578;2023-04-25T00:04:53;8.70;99.90
14378;DHT22;7272;53.668;9.578;2023-04-25T00:07:58;8.80;99.90
14378;DHT22;7272;53.668;9.578;2023-04-25T00:11:01;8.70;99.90
14378;DHT22;7272;53.668;9.578;2023-04-25T00:14:02;8.70;99.90
14378;DHT22;7272;53.668;9.578;2023-04-25T00:17:04;8.80;99.90
14378;DHT22;7272;53.668;9.578;2023-04-25T00:20:07;8.80;99.90
14378;DHT22;7272;53.668;9.578;2023-04-25T00:23:09;8.80;99.90
14378;DHT22;7272;53.668;9.578;2023-04-25T00:26:11;8.80;99.90
14378;DHT22;7272;53.668;9.578;2023-04-25T00:29:13;8.80;99.90
14378;DHT22;7272;53.668;9.578;2023-04-25T00:32:14;8.80;99.90
14378;DHT22;7272;53.668;9.578;2023-04-25T00:35:15;8.70;99.90
14378;DHT22;7272;53.668;9.578;2023-04-25T00:38:17;8.70;99.90
14378;DHT22;7272;53.668;9.578;2023-04-25T00:41:19;8.70;99.90
14378;DHT22;7272;53.668;9.578;2023-04-25T00:44:20;8.70;99.90
14378;DHT22;7272;53.668;9.578;2023-04-25T00:47:22;8.60;99.90
14378;DHT22;7272;53.668;9.578;2023-04-25T00:50:24;8.70;99.90
14378;DHT22;7272;53.668;9.578;2023-04-25T00:53:27;8.80;99.90
14378;DHT22;7272;53.668;9.578;2023-04-25T00:56:30;8.80;99.90
14378;DHT22;7272;53.668;9.578;2023-04-25T00:59:31;8.70;99.90
14378;DHT22;7272;53.668;9.578;2023-04-25T01:02:32;8.60;99.90
14378;DHT22;7272;53.668;9.578;2023-04-25T01:05:34;8.50;99.90
14378;DHT22;7272;53.668;9.578;2023-04-25T01:08:36;8.40;99.90
14378;DHT22;7272;53.668;9.578;2023-04-25T01:11:38;8.40;99.90
14378;DHT22;7272;53.668;9.578;2023-04-25T01:14:40;8.30;99.90
14378;DHT22;7272;53.668;9.578;2023-04-25T01:17:42;8.20;99.90
14378;DHT22;7272;53.668;9.578;2023-04-25T01:20:46;8.20;99.90
14378;DHT22;7272;53.668;9.578;2023-04-25T01:23:48;8.10;99.90
14378;DHT22;7272;53.668;9.578;2023-04-25T01:26:50;8.20;99.90
14378;DHT22;7272;53.668;9.578;2023-04-25T01:29:57;8.20;99.90
14378;DHT22;7272;53.668;9.578;2023-04-25T01:32:59;8.20;99.90
14378;DHT22;7272;53.668;9.578;2023-04-25T01:36:04;8.20;99.90
14378;DHT22;7272;53.668;9.578;2023-04-25T01:39:06;8.20;99.90
14378;DHT22;7272;53.668;9.578;2023-04-25T01:42:07;8.20;99.90
14378;DHT22;7272;53.668;9.578;2023-04-25T01:45:09;8.20;99.90
14378;DHT22;7272;53.668;9.578;2023-04-25T01:48:13;8.20;99.90
14378;DHT22;7272;53.668;9.578;2023-04-25T01:51:14;8.10;99.90
14378;DHT22;7272;53.668;9.578;2023-04-25T01:54:17;8.10;99.90
14378;DHT22;7272;53.668;9.578;2023-04-25T01:57:20;8.00;99.90
14378;DHT22;7272;53.668;9.578;2023-04-25T02:00:22;8.00;99.90
14378;DHT22;7272;53.668;9.578;2023-04-25T02:03:23;8.00;99.90
14378;DHT22;7272;53.668;9.578;2023-04-25T02:06:26;8.00;99.90
14378;DHT22;7272;53.668;9.578;2023-04-25T02:09:31;8.10;99.90
14378;DHT22;7272;53.668;9.578;2023-04-25T02:12:32;8.10;99.90
14378;DHT22;7272;53.668;9.578;2023-04-25T02:15:54;8.10;99.90
14378;DHT22;7272;53.668;9.578;2023-04-25T02:18:55;8.00;99.90
14378;DHT22;7272;53.668;9.578;2023-04-25T02:21:56;8.00;99.90
14378;DHT22;7272;53.668;9.578;2023-04-25T02:24:59;7.90;99.90
14378;DHT22;7272;53.668;9.578;2023-04-25T02:28:00;7.90;99.90
14378;DHT22;7272;53.668;9.578;2023-04-25T02:31:01;7.80;99.90
14378;DHT22;7272;53.668;9.578;2023-04-25T02:34:05;7.80;99.90
14378;DHT22;7272;53.668;9.578;2023-04-25T02:37:09;7.80;99.90
14378;DHT22;7272;53.668;9.578;2023-04-25T02:40:12;7.80;99.90
14378;DHT22;7272;53.668;9.578;2023-04-25T02:43:13;7.80;99.90
14378;DHT22;7272;53.668;9.578;2023-04-25T02:46:14;7.70;99.90
14378;DHT22;7272;53.668;9.578;2023-04-25T02:49:15;7.70;99.90
14378;DHT22;7272;53.668;9.578;2023-04-25T02:52:17;7.60;99.90
14378;DHT22;7272;53.668;9.578;2023-04-25T02:55:22;7.50;99.90
14378;DHT22;7272;53.668;9.578;2023-04-25T02:58:23;7.40;99.90
14378;DHT22;7272;53.668;9.578;2023-04-25T03:01:26;7.30;99.90
14378;DHT22;7272;53.668;9.578;2023-04-25T03:04:28;7.30;99.90
14378;DHT22;7272;53.668;9.578;2023-04-25T03:07:29;7.30;99.90
14378;DHT22;7272;53.668;9.578;2023-04-25T03:10:31;7.30;99.90
14378;DHT22;7272;53.668;9.578;2023-04-25T03:13:36;7.30;99.90
14378;DHT22;7272;53.668;9.578;2023-04-25T03:16:38;7.30;99.90
14378;DHT22;7272;53.668;9.578;2023-04-25T03:19:39;7.40;99.90
14378;DHT22;7272;53.668;9.578;2023-04-25T03:22:41;7.30;99.90
14378;DHT22;7272;53.668;9.578;2023-04-25T03:25:43;7.30;99.90
14378;DHT22;7272;53.668;9.578;2023-04-25T03:28:44;7.40;99.90
14378;DHT22;7272;53.668;9.578;2023-04-25T03:31:46;7.30;99.90
14378;DHT22;7272;53.668;9.578;2023-04-25T03:34:48;7.30;99.90
14378;DHT22;7272;53.668;9.578;2023-04-25T03:37:49;7.30;99.90
14378;DHT22;7272;53.668;9.578;2023-04-25T03:40:56;7.30;99.90
14378;DHT22;7272;53.668;9.578;2023-04-25T03:44:01;7.30;99.90
14378;DHT22;7272;53.668;9.578;2023-04-25T03:47:03;7.20;99.90
14378;DHT22;7272;53.668;9.578;2023-04-25T03:50:05;7.20;99.90
14378;DHT22;7272;53.668;9.578;2023-04-25T03:53:07;7.10;99.90
14378;DHT22;7272;53.668;9.578;2023-04-25T03:56:30;7.00;99.90
14378;DHT22;7272;53.668;9.578;2023-04-25T03:59:39;7.00;99.90
14378;DHT22;7272;53.668;9.578;2023-04-25T04:02:42;6.90;99.90
14378;DHT22;7272;53.668;9.578;2023-04-25T04:05:44;6.90;99.90
14378;DHT22;7272;53.668;9.578;2023-04-25T04:08:45;6.90;99.90
14378;DHT22;7272;53.668;9.578;2023-04-25T04:11:47;7.00;99.90
14378;DHT22;7272;53.668;9.578;2023-04-25T04:14:49;7.00;99.90
14378;DHT22;7272;53.668;9.578;2023-04-25T04:17:50;7.10;99.90
14378;DHT22;7272;53.668;9.578;2023-04-25T04:20:52;7.20;99.90
14378;DHT22;7272;53.668;9.578;2023-04-25T04:23:54;7.20;99.90
14378;DHT22;7272;53.668;9.578;2023-04-25T04:26:57;7.20;99.90
14378;DHT22;7272;53.668;9.578;2023-04-25T04:30:07;7.20;99.90
14378;DHT22;7272;53.668;9.578;2023-04-25T04:33:14;7.20;99.90
14378;DHT22;7272;53.668;9.578;2023-04-25T04:36:17;7.20;99.90
14378;DHT22;7272;53.668;9.578;2023-04-25T04:39:21;7.20;99.90
14378;DHT22;7272;53.668;9.578;2023-04-25T04:42:41;7.20;99.90
14378;DHT22;7272;53.668;9.578;2023-04-25T04:45:50;7.10;99.90
14378;DHT22;7272;53.668;9.578;2023-04-25T04:49:10;7.10;99.90
14378;DHT22;7272;53.668;9.578;2023-04-25T04:52:33;7.10;99.90
14378;DHT22;7272;53.668;9.578;2023-04-25T04:55:39;7.10;99.90
14378;DHT22;7272;53.668;9.578;2023-04-25T04:59:00;7.10;99.90
14378;DHT22;7272;53.668;9.578;2023-04-25T05:02:08;7.10;99.90
14378;DHT22;7272;53.668;9.578;2023-04-25T05:05:22;7.20;99.90
14378;DHT22;7272;53.668;9.578;2023-04-25T05:08:46;7.30;99.90
14378;DHT22;7272;53.668;9.578;2023-04-25T05:12:11;7.30;99.90
14378;DHT22;7272;53.668;9.578;2023-04-25T05:15:28;7.40;99.90
14378;DHT22;7272;53.668;9.578;2023-04-25T05:18:53;7.40;99.90
14378;DHT22;7272;53.668;9.578;2023-04-25T05:22:03;7.50;99.90
14378;DHT22;7272;53.668;9.578;2023-04-25T05:25:11;7.60;99.90
14378;DHT22;7272;53.668;9.578;2023-04-25T05:28:28;7.60;99.90
14378;DHT22;7272;53.668;9.578;2023-04-25T05:31:54;7.70;99.90
14378;DHT22;7272;53.668;9.578;2023-04-25T05:34:55;7.60;99.90
14378;DHT22;7272;53.668;9.578;2023-04-25T05:38:11;7.70;99.90
14378;DHT22;7272;53.668;9.578;2023-04-25T05:41:47;7.70;99.90
14378;DHT22;7272;53.668;9.578;2023-04-25T05:45:17;7.70;99.90
14378;DHT22;7272;53.668;9.578;2023-04-25T05:48:42;7.70;99.90
14378;DHT22;7272;53.668;9.578;2023-04-25T05:51:55;7.70;99.90
14378;DHT22;7272;53.668;9.578;2023-04-25T05:55:12;7.70;99.90
14378;DHT22;7272;53.668;9.578;2023-04-25T05:58:14;7.70;99.90
14378;DHT22;7272;53.668;9.578;2023-04-25T06:01:16;7.60;99.90
14378;DHT22;7272;53.668;9.578;2023-04-25T06:04:20;7.60;99.90
14378;DHT22;7272;53.668;9.578;2023-04-25T06:07:21;7.60;99.90
14378;DHT22;7272;53.668;9.578;2023-04-25T06:10:22;7.70;99.90
14378;DHT22;7272;53.668;9.578;2023-04-25T06:13:24;7.80;99.90
14378;DHT22;7272;53.668;9.578;2023-04-25T06:16:25;7.90;99.90
14378;DHT22;7272;53.668;9.578;2023-04-25T06:19:27;7.90;99.90
14378;DHT22;7272;53.668;9.578;2023-04-25T06:22:28;7.90;99.90
14378;DHT22;7272;53.668;9.578;2023-04-25T06:25:31;8.00;99.90
14378;DHT22;7272;53.668;9.578;2023-04-25T06:28:33;8.10;99.90
14378;DHT22;7272;53.668;9.578;2023-04-25T06:31:35;8.20;99.90
14378;DHT22;7272;53.668;9.578;2023-04-25T06:34:37;8.20;99.90
14378;DHT22;7272;53.668;9.578;2023-04-25T06:37:40;8.20;99.90
14378;DHT22;7272;53.668;9.578;2023-04-25T06:40:41;8.20;99.90
14378;DHT22;7272;53.668;9.578;2023-04-25T06:43:44;8.30;99.90
14378;DHT22;7272;53.668;9.578;2023-04-25T06:47:05;8.30;99.90
14378;DHT22;7272;53.668;9.578;2023-04-25T06:50:08;8.30;99.90
14378;DHT22;7272;53.668;9.578;2023-04-25T06:53:10;8.30;99.90
14378;DHT22;7272;53.668;9.578;2023-04-25T06:56:12;8.30;99.90
14378;DHT22;7272;53.668;9.578;2023-04-25T06:59:26;8.30;99.90
14378;DHT22;7272;53.668;9.578;2023-04-25T07:02:28;8.30;99.90
14378;DHT22;7272;53.668;9.578;2023-04-25T07:05:30;8.40;99.90
14378;DHT22;7272;53.668;9.578;2023-04-25T07:08:31;8.40;99.90
14378;DHT22;7272;53.668;9.578;2023-04-25T07:11:33;8.50;99.90
14378;DHT22;7272;53.668;9.578;2023-04-25T07:14:34;8.50;99.90
14378;DHT22;7272;53.668;9.578;2023-04-25T07:17:36;8.60;99.90
14378;DHT22;7272;53.668;9.578;2023-04-25T07:20:37;8.70;99.90
14378;DHT22;7272;53.668;9.578;2023-04-25T07:23:39;8.90;99.90
14378;DHT22;7272;53.668;9.578;2023-04-25T07:26:45;9.00;99.90
14378;DHT22;7272;53.668;9.578;2023-04-25T07:30:10;9.10;99.90
14378;DHT22;7272;53.668;9.578;2023-04-25T07:33:13;9.20;99.90
14378;DHT22;7272;53.668;9.578;2023-04-25T07:36:15;9.20;99.90
14378;DHT22;7272;53.668;9.578;2023-04-25T07:39:16;9.20;99.90
14378;DHT22;7272;53.668;9.578;2023-04-25T07:42:18;9.30;99.90
14378;DHT22;7272;53.668;9.578;2023-04-25T07:45:19;9.20;99.90
14378;DHT22;7272;53.668;9.578;2023-04-25T07:48:21;9.20;99.90
14378;DHT22;7272;53.668;9.578;2023-04-25T07:51:24;9.20;99.90
14378;DHT22;7272;53.668;9.578;2023-04-25T07:54:28;9.20;99.90
14378;DHT22;7272;53.668;9.578;2023-04-25T07:57:35;9.20;99.90
14378;DHT22;7272;53.668;9.578;2023-04-25T08:00:37;9.40;99.90
14378;DHT22;7272;53.668;9.578;2023-04-25T08:04:12;9.40;99.90
14378;DHT22;7272;53.668;9.578;2023-04-25T08:07:28;9.40;99.90
14378;DHT22;7272;53.668;9.578;2023-04-25T08:10:32;9.30;99.90
14378;DHT22;7272;53.668;9.578;2023-04-25T08:13:34;9.30;99.90
14378;DHT22;7272;53.668;9.578;2023-04-25T08:16:35;9.70;99.90
14378;DHT22;7272;53.668;9.578;2023-04-25T08:19:37;10.00;99.90
14378;DHT22;7272;53.668;9.578;2023-04-25T08:22:39;9.80;99.90
14378;DHT22;7272;53.668;9.578;2023-04-25T08:26:01;9.50;99.90
14378;DHT22;7272;53.668;9.578;2023-04-25T08:29:04;9.50;99.90
14378;DHT22;7272;53.668;9.578;2023-04-25T08:32:06;9.60;99.90
14378;DHT22;7272;53.668;9.578;2023-04-25T08:35:10;9.70;99.90
14378;DHT22;7272;53.668;9.578;2023-04-25T08:38:12;9.60;99.90
14378;DHT22;7272;53.668;9.578;2023-04-25T08:41:14;9.40;99.90
14378;DHT22;7272;53.668;9.578;2023-04-25T08:44:16;9.40;99.90
14378;DHT22;7272;53.668;9.578;2023-04-25T08:47:21;9.40;99.90
14378;DHT22;7272;53.668;9.578;2023-04-25T08:50:27;9.50;99.90
14378;DHT22;7272;53.668;9.578;2023-04-25T08:53:31;9.50;99.90
14378;DHT22;7272;53.668;9.578;2023-04-25T08:56:35;9.40;99.90
14378;DHT22;7272;53.668;9.578;2023-04-25T08:59:37;9.70;99.90
14378;DHT22;7272;53.668;9.578;2023-04-25T09:02:42;10.10;99.90
14378;DHT22;7272;53.668;9.578;2023-04-25T09:05:44;10.60;99.90
14378;DHT22;7272;53.668;9.578;2023-04-25T09:08:45;10.50;99.90
14378;DHT22;7272;53.668;9.578;2023-04-25T09:11:47;9.80;99.90
14378;DHT22;7272;53.668;9.578;2023-04-25T09:15:10;8.90;99.90
14378;DHT22;7272;53.668;9.578;2023-04-25T09:18:34;8.90;99.90
14378;DHT22;7272;53.668;9.578;2023-04-25T09:21:36;9.00;99.90
14378;DHT22;7272;53.668;9.578;2023-04-25T09:24:39;9.00;99.90
14378;DHT22;7272;53.668;9.578;2023-04-25T09:27:51;9.10;99.90
14378;DHT22;7272;53.668;9.578;2023-04-25T09:30:57;9.30;99.90
14378;DHT22;7272;53.668;9.578;2023-04-25T09:34:05;9.60;99.90
14378;DHT22;7272;53.668;9.578;2023-04-25T09:37:19;9.70;99.90
14378;DHT22;7272;53.668;9.578;2023-04-25T09:40:41;9.60;99.90
14378;DHT22;7272;53.668;9.578;2023-04-25T09:43:50;9.30;99.90
14378;DHT22;7272;53.668;9.578;2023-04-25T09:46:51;9.00;99.90
14378;DHT22;7272;53.668;9.578;2023-04-25T09:49:55;8.80;99.90
14378;DHT22;7272;53.668;9.578;2023-04-25T09:53:03;8.60;99.90
14378;DHT22;7272;53.668;9.578;2023-04-25T09:56:08;8.70;99.90
14378;DHT22;7272;53.668;9.578;2023-04-25T09:59:11;8.90;99.90
14378;DHT22;7272;53.668;9.578;2023-04-25T10:02:16;9.60;99.90
14378;DHT22;7272;53.668;9.578;2023-04-25T10:05:20;10.30;99.90
14378;DHT22;7272;53.668;9.578;2023-04-25T10:08:22;10.40;99.90
14378;DHT22;7272;53.668;9.578;2023-04-25T10:11:26;10.20;99.90
14378;DHT22;7272;53.668;9.578;2023-04-25T10:14:29;10.20;99.90
14378;DHT22;7272;53.668;9.578;2023-04-25T10:17:31;10.20;99.90
14378;DHT22;7272;53.668;9.578;2023-04-25T10:20:33;10.30;99.90
14378;DHT22;7272;53.668;9.578;2023-04-25T10:23:36;10.90;99.90
14378;DHT22;7272;53.668;9.578;2023-04-25T10:26:39;11.30;99.90
14378;DHT22;7272;53.668;9.578;2023-04-25T10:29:41;10.90;99.90
14378;DHT22;7272;53.668;9.578;2023-04-25T10:32:44;10.60;99.90
14378;DHT22;7272;53.668;9.578;2023-04-25T10:35:46;10.50;99.90
14378;DHT22;7272;53.668;9.578;2023-04-25T10:38:48;10.70;99.90
14378;DHT22;7272;53.668;9.578;2023-04-25T10:41:56;10.70;99.90
14378;DHT22;7272;53.668;9.578;2023-04-25T10:45:02;10.90;99.90
14378;DHT22;7272;53.668;9.578;2023-04-25T10:48:25;10.70;99.90
14378;DHT22;7272;53.668;9.578;2023-04-25T10:51:27;10.70;99.90
14378;DHT22;7272;53.668;9.578;2023-04-25T10:54:30;10.60;99.90
14378;DHT22;7272;53.668;9.578;2023-04-25T10:57:37;10.60;99.90
14378;DHT22;7272;53.668;9.578;2023-04-25T11:00:39;11.20;99.90
14378;DHT22;7272;53.668;9.578;2023-04-25T11:03:42;11.20;99.90
14378;DHT22;7272;53.668;9.578;2023-04-25T11:06:51;10.20;99.90
14378;DHT22;7272;53.668;9.578;2023-04-25T11:09:55;9.80;99.90
14378;DHT22;7272;53.668;9.578;2023-04-25T11:12:57;9.80;99.90
14378;DHT22;7272;53.668;9.578;2023-04-25T11:15:59;10.00;99.90
14378;DHT22;7272;53.668;9.578;2023-04-25T11:19:00;10.40;99.90
14378;DHT22;7272;53.668;9.578;2023-04-25T11:22:02;10.80;99.90
14378;DHT22;7272;53.668;9.578;2023-04-25T11:25:05;11.40;99.90
14378;DHT22;7272;53.668;9.578;2023-04-25T11:28:07;12.00;99.90
14378;DHT22;7272;53.668;9.578;2023-04-25T11:31:09;12.20;99.90
14378;DHT22;7272;53.668;9.578;2023-04-25T11:34:11;11.60;99.90
14378;DHT22;7272;53.668;9.578;2023-04-25T11:37:12;11.30;99.90
14378;DHT22;7272;53.668;9.578;2023-04-25T11:40:14;11.00;99.90
14378;DHT22;7272;53.668;9.578;2023-04-25T11:43:16;11.00;99.90
14378;DHT22;7272;53.668;9.578;2023-04-25T11:46:18;11.30;99.90
14378;DHT22;7272;53.668;9.578;2023-04-25T11:49:20;11.40;99.90
14378;DHT22;7272;53.668;9.578;2023-04-25T11:52:22;11.30;99.90
14378;DHT22;7272;53.668;9.578;2023-04-25T11:55:24;11.00;99.90
14378;DHT22;7272;53.668;9.578;2023-04-25T11:58:26;10.30;99.90
14378;DHT22;7272;53.668;9.578;2023-04-25T12:01:28;10.00;99.90
14378;DHT22;7272;53.668;9.578;2023-04-25T12:04:31;10.30;99.90
14378;DHT22;7272;53.668;9.578;2023-04-25T12:07:33;10.00;99.90
14378;DHT22;7272;53.668;9.578;2023-04-25T12:10:37;9.70;99.90
14378;DHT22;7272;53.668;9.578;2023-04-25T12:13:39;9.90;99.90
14378;DHT22;7272;53.668;9.578;2023-04-25T12:16:41;10.70;99.90
14378;DHT22;7272;53.668;9.578;2023-04-25T12:19:43;11.20;99.90
14378;DHT22;7272;53.668;9.578;2023-04-25T12:22:48;11.20;99.90
14378;DHT22;7272;53.668;9.578;2023-04-25T12:25:49;10.40;99.90
14378;DHT22;7272;53.668;9.578;2023-04-25T12:28:51;10.40;99.90
14378;DHT22;7272;53.668;9.578;2023-04-25T12:31:53;10.70;99.90
14378;DHT22;7272;53.668;9.578;2023-04-25T12:34:55;11.00;99.90
14378;DHT22;7272;53.668;9.578;2023-04-25T12:37:57;11.20;99.90
14378;DHT22;7272;53.668;9.578;2023-04-25T12:40:58;11.40;99.90
14378;DHT22;7272;53.668;9.578;2023-04-25T12:44:00;11.50;99.90
14378;DHT22;7272;53.668;9.578;2023-04-25T12:47:01;11.00;99.90
14378;DHT22;7272;53.668;9.578;2023-04-25T12:50:04;9.30;99.90
14378;DHT22;7272;53.668;9.578;2023-04-25T12:53:05;8.00;99.90
14378;DHT22;7272;53.668;9.578;2023-04-25T12:56:07;7.50;99.90
14378;DHT22;7272;53.668;9.578;2023-04-25T12:59:08;7.40;99.90
14378;DHT22;7272;53.668;9.578;2023-04-25T13:02:10;7.50;99.90
14378;DHT22;7272;53.668;9.578;2023-04-25T13:05:11;7.60;99.90
14378;DHT22;7272;53.668;9.578;2023-04-25T13:08:13;8.40;99.90
14378;DHT22;7272;53.668;9.578;2023-04-25T13:11:14;9.10;99.90
14378;DHT22;7272;53.668;9.578;2023-04-25T13:14:16;9.60;99.90
14378;DHT22;7272;53.668;9.578;2023-04-25T13:17:17;9.70;99.90
14378;DHT22;7272;53.668;9.578;2023-04-25T13:20:18;9.30;99.90
14378;DHT22;7272;53.668;9.578;2023-04-25T13:23:22;8.80;99.90
14378;DHT22;7272;53.668;9.578;2023-04-25T13:26:24;7.80;99.90
14378;DHT22;7272;53.668;9.578;2023-04-25T13:29:26;6.90;99.90
14378;DHT22;7272;53.668;9.578;2023-04-25T13:32:27;6.80;99.90
14378;DHT22;7272;53.668;9.578;2023-04-25T13:35:29;7.00;99.90
14378;DHT22;7272;53.668;9.578;2023-04-25T13:38:31;7.30;99.90
14378;DHT22;7272;53.668;9.578;2023-04-25T13:41:32;7.70;99.90
14378;DHT22;7272;53.668;9.578;2023-04-25T13:44:34;8.10;99.90
14378;DHT22;7272;53.668;9.578;2023-04-25T13:47:35;8.80;99.90
14378;DHT22;7272;53.668;9.578;2023-04-25T13:50:36;9.40;99.90
14378;DHT22;7272;53.668;9.578;2023-04-25T13:53:37;10.00;99.90
14378;DHT22;7272;53.668;9.578;2023-04-25T13:56:39;10.10;99.90
14378;DHT22;7272;53.668;9.578;2023-04-25T13:59:43;9.80;99.90
14378;DHT22;7272;53.668;9.578;2023-04-25T14:02:44;9.60;99.90
14378;DHT22;7272;53.668;9.578;2023-04-25T14:05:45;9.70;99.90
14378;DHT22;7272;53.668;9.578;2023-04-25T14:08:46;10.00;99.90
14378;DHT22;7272;53.668;9.578;2023-04-25T14:11:48;10.10;99.90
14378;DHT22;7272;53.668;9.578;2023-04-25T14:14:49;10.40;99.90
14378;DHT22;7272;53.668;9.578;2023-04-25T14:17:51;10.50;99.90
14378;DHT22;7272;53.668;9.578;2023-04-25T14:20:52;10.10;99.90
14378;DHT22;7272;53.668;9.578;2023-04-25T14:23:53;10.00;99.90
14378;DHT22;7272;53.668;9.578;2023-04-25T14:26:54;10.10;99.90
14378;DHT22;7272;53.668;9.578;2023-04-25T14:29:57;10.30;99.90
14378;DHT22;7272;53.668;9.578;2023-04-25T14:32:58;10.50;99.90
14378;DHT22;7272;53.668;9.578;2023-04-25T14:35:59;10.70;99.90
14378;DHT22;7272;53.668;9.578;2023-04-25T14:39:00;10.40;99.90
14378;DHT22;7272;53.668;9.578;2023-04-25T14:42:02;9.90;99.90
14378;DHT22;7272;53.668;9.578;2023-04-25T14:45:05;9.80;99.90
14378;DHT22;7272;53.668;9.578;2023-04-25T14:48:06;9.70;99.90
14378;DHT22;7272;53.668;9.578;2023-04-25T14:51:08;9.60;99.90
14378;DHT22;7272;53.668;9.578;2023-04-25T14:54:09;9.60;99.90
14378;DHT22;7272;53.668;9.578;2023-04-25T14:57:13;9.70;99.90
14378;DHT22;7272;53.668;9.578;2023-04-25T15:00:15;10.10;99.90
14378;DHT22;7272;53.668;9.578;2023-04-25T15:03:17;10.30;99.90
14378;DHT22;7272;53.668;9.578;2023-04-25T15:06:18;10.20;99.90
14378;DHT22;7272;53.668;9.578;2023-04-25T15:09:19;10.00;99.90
14378;DHT22;7272;53.668;9.578;2023-04-25T15:12:21;9.80;99.90
14378;DHT22;7272;53.668;9.578;2023-04-25T15:15:22;9.80;99.90
14378;DHT22;7272;53.668;9.578;2023-04-25T15:18:24;9.70;99.90
14378;DHT22;7272;53.668;9.578;2023-04-25T15:21:25;9.60;99.90
14378;DHT22;7272;53.668;9.578;2023-04-25T15:24:27;9.60;99.90
14378;DHT22;7272;53.668;9.578;2023-04-25T15:27:28;9.80;99.90
14378;DHT22;7272;53.668;9.578;2023-04-25T15:30:30;9.80;99.90
14378;DHT22;7272;53.668;9.578;2023-04-25T15:33:31;9.80;99.90
14378;DHT22;7272;53.668;9.578;2023-04-25T15:36:32;9.50;99.90
14378;DHT22;7272;53.668;9.578;2023-04-25T15:39:34;9.30;99.90
14378;DHT22;7272;53.668;9.578;2023-04-25T15:42:35;9.10;99.90
14378;DHT22;7272;53.668;9.578;2023-04-25T15:45:37;9.20;99.90
14378;DHT22;7272;53.668;9.578;2023-04-25T15:48:38;9.30;99.90
14378;DHT22;7272;53.668;9.578;2023-04-25T15:51:39;9.20;99.90
14378;DHT22;7272;53.668;9.578;2023-04-25T15:54:41;9.10;99.90
14378;DHT22;7272;53.668;9.578;2023-04-25T15:57:42;9.10;99.90
14378;DHT22;7272;53.668;9.578;2023-04-25T16:00:44;9.00;99.90
14378;DHT22;7272;53.668;9.578;2023-04-25T16:03:49;9.10;99.90
14378;DHT22;7272;53.668;9.578;2023-04-25T16:06:50;9.40;99.90
14378;DHT22;7272;53.668;9.578;2023-04-25T16:09:51;9.50;99.90
14378;DHT22;7272;53.668;9.578;2023-04-25T16:12:53;9.50;99.90
14378;DHT22;7272;53.668;9.578;2023-04-25T16:15:54;9.50;99.90
14378;DHT22;7272;53.668;9.578;2023-04-25T16:18:56;9.50;99.90
14378;DHT22;7272;53.668;9.578;2023-04-25T16:21:57;9.60;99.90
14378;DHT22;7272;53.668;9.578;2023-04-25T16:24:58;9.70;99.90
14378;DHT22;7272;53.668;9.578;2023-04-25T16:27:59;9.80;99.90
14378;DHT22;7272;53.668;9.578;2023-04-25T16:31:01;9.70;99.90
14378;DHT22;7272;53.668;9.578;2023-04-25T16:34:02;9.40;99.90
14378;DHT22;7272;53.668;9.578;2023-04-25T16:37:03;9.30;99.90
14378;DHT22;7272;53.668;9.578;2023-04-25T16:40:06;9.30;99.90
14378;DHT22;7272;53.668;9.578;2023-04-25T16:43:08;9.20;99.90
14378;DHT22;7272;53.668;9.578;2023-04-25T16:46:10;9.20;99.90
14378;DHT22;7272;53.668;9.578;2023-04-25T16:49:11;9.10;99.90
14378;DHT22;7272;53.668;9.578;2023-04-25T16:52:13;8.80;99.90
14378;DHT22;7272;53.668;9.578;2023-04-25T16:55:15;8.50;99.90
14378;DHT22;7272;53.668;9.578;2023-04-25T16:58:17;8.50;99.90
14378;DHT22;7272;53.668;9.578;2023-04-25T17:01:18;8.70;99.90
14378;DHT22;7272;53.668;9.578;2023-04-25T17:04:20;8.70;99.90
14378;DHT22;7272;53.668;9.578;2023-04-25T17:07:21;8.50;99.90
14378;DHT22;7272;53.668;9.578;2023-04-25T17:10:24;8.50;99.90
14378;DHT22;7272;53.668;9.578;2023-04-25T17:13:25;8.60;99.90
14378;DHT22;7272;53.668;9.578;2023-04-25T17:16:34;8.70;99.90
14378;DHT22;7272;53.668;9.578;2023-04-25T17:19:35;8.80;99.90
14378;DHT22;7272;53.668;9.578;2023-04-25T17:22:37;8.60;99.90
14378;DHT22;7272;53.668;9.578;2023-04-25T17:25:38;8.40;99.90
14378;DHT22;7272;53.668;9.578;2023-04-25T17:28:39;8.30;99.90
14378;DHT22;7272;53.668;9.578;2023-04-25T17:31:43;8.30;99.90
14378;DHT22;7272;53.668;9.578;2023-04-25T17:34:44;8.20;99.90
14378;DHT22;7272;53.668;9.578;2023-04-25T17:37:45;8.20;99.90
14378;DHT22;7272;53.668;9.578;2023-04-25T17:40:47;8.20;99.90
14378;DHT22;7272;53.668;9.578;2023-04-25T17:43:48;8.30;99.90
14378;DHT22;7272;53.668;9.578;2023-04-25T17:46:50;8.20;99.90
14378;DHT22;7272;53.668;9.578;2023-04-25T17:49:51;8.10;99.90
14378;DHT22;7272;53.668;9.578;2023-04-25T17:52:52;8.10;99.90
14378;DHT22;7272;53.668;9.578;2023-04-25T17:55:53;8.10;99.90
14378;DHT22;7272;53.668;9.578;2023-04-25T17:58:56;8.10;99.90
14378;DHT22;7272;53.668;9.578;2023-04-25T18:01:58;8.00;99.90
14378;DHT22;7272;53.668;9.578;2023-04-25T18:05:00;7.90;99.90
14378;DHT22;7272;53.668;9.578;2023-04-25T18:08:04;7.80;99.90
14378;DHT22;7272;53.668;9.578;2023-04-25T18:11:06;7.80;99.90
14378;DHT22;7272;53.668;9.578;2023-04-25T18:14:07;7.70;99.90
14378;DHT22;7272;53.668;9.578;2023-04-25T18:17:14;7.70;99.90
14378;DHT22;7272;53.668;9.578;2023-04-25T18:20:16;7.60;99.90
14378;DHT22;7272;53.668;9.578;2023-04-25T18:23:18;7.60;99.90
14378;DHT22;7272;53.668;9.578;2023-04-25T18:26:20;7.60;99.90
14378;DHT22;7272;53.668;9.578;2023-04-25T18:29:21;7.70;99.90
14378;DHT22;7272;53.668;9.578;2023-04-25T18:32:23;7.60;99.90
14378;DHT22;7272;53.668;9.578;2023-04-25T18:35:25;7.30;99.90
14378;DHT22;7272;53.668;9.578;2023-04-25T18:38:27;7.20;99.90
14378;DHT22;7272;53.668;9.578;2023-04-25T18:41:28;7.00;99.90
14378;DHT22;7272;53.668;9.578;2023-04-25T18:44:29;6.90;99.90
14378;DHT22;7272;53.668;9.578;2023-04-25T18:47:33;6.80;99.90
14378;DHT22;7272;53.668;9.578;2023-04-25T18:50:35;6.80;99.90
14378;DHT22;7272;53.668;9.578;2023-04-25T18:53:37;6.90;99.90
14378;DHT22;7272;53.668;9.578;2023-04-25T18:56:38;6.90;99.90
14378;DHT22;7272;53.668;9.578;2023-04-25T18:59:40;6.90;99.90
14378;DHT22;7272;53.668;9.578;2023-04-25T19:02:42;6.90;99.90
14378;DHT22;7272;53.668;9.578;2023-04-25T19:05:43;6.90;99.90
14378;DHT22;7272;53.668;9.578;2023-04-25T19:08:44;6.90;99.90
14378;DHT22;7272;53.668;9.578;2023-04-25T19:11:45;6.90;99.90
14378;DHT22;7272;53.668;9.578;2023-04-25T19:14:47;6.90;99.90
14378;DHT22;7272;53.668;9.578;2023-04-25T19:17:50;6.90;99.90
14378;DHT22;7272;53.668;9.578;2023-04-25T19:20:51;6.90;99.90
14378;DHT22;7272;53.668;9.578;2023-04-25T19:23:53;6.90;99.90
14378;DHT22;7272;53.668;9.578;2023-04-25T19:26:54;6.80;99.90
14378;DHT22;7272;53.668;9.578;2023-04-25T19:29:55;6.80;99.90
14378;DHT22;7272;53.668;9.578;2023-04-25T19:33:07;6.80;99.90
14378;DHT22;7272;53.668;9.578;2023-04-25T19:36:09;6.70;99.90
14378;DHT22;7272;53.668;9.578;2023-04-25T19:39:10;6.70;99.90
14378;DHT22;7272;53.668;9.578;2023-04-25T19:42:11;6.70;99.90
14378;DHT22;7272;53.668;9.578;2023-04-25T19:45:12;6.70;99.90
14378;DHT22;7272;53.668;9.578;2023-04-25T19:48:14;6.70;99.90
14378;DHT22;7272;53.668;9.578;2023-04-25T19:51:15;6.60;99.90
14378;DHT22;7272;53.668;9.578;2023-04-25T19:54:16;6.60;99.90
14378;DHT22;7272;53.668;9.578;2023-04-25T19:57:18;6.70;99.90